createdAt,value
2023-02-07T00:02:06.183Z,69.22
2023-02-07T00:04:36.012Z,64.90
2023-02-07T00:07:05.525Z,69.37
2023-02-07T00:09:36.662Z,89.60
2023-02-07T00:12:07.471Z,94.77
2023-02-07T00:14:36.884Z,74.77
2023-02-07T00:17:06.392Z,82.88
2023-02-07T00:19:36.015Z,98.05
2023-02-07T00:22:05.536Z,87.62
2023-02-07T00:24:34.965Z,100.87
2023-02-07T00:27:04.897Z,90.10
2023-02-07T00:29:34.389Z,86.65
2023-02-07T00:32:04.358Z,79.75
2023-02-07T00:34:35.603Z,84.07
2023-02-07T00:37:08.369Z,76.40
2023-02-07T00:39:38.484Z,85.32
2023-02-07T00:42:08.327Z,89.30
2023-02-07T00:44:38.885Z,105.95
2023-02-07T00:47:08.373Z,103.83
2023-02-07T00:49:39.607Z,104.53
2023-02-07T00:52:09.064Z,91.67
2023-02-07T00:54:40.071Z,85.03
2023-02-07T00:57:10.020Z,95.17
2023-02-07T00:59:39.444Z,88.17
2023-02-07T01:02:08.869Z,84.65
2023-02-07T01:04:38.955Z,83.45
2023-02-07T01:07:09.225Z,87.27
2023-02-07T01:09:38.800Z,87.45
2023-02-07T01:12:09.302Z,84.37
2023-02-07T01:14:38.733Z,86.25
2023-02-07T01:17:08.186Z,83.90
2023-02-07T01:19:38.041Z,89.90
2023-02-07T01:22:07.614Z,100.47
2023-02-07T01:24:37.121Z,98.67
2023-02-07T01:27:07.112Z,131.27
2023-02-07T01:29:36.542Z,134.10
2023-02-07T01:32:07.768Z,125.75
2023-02-07T01:34:37.269Z,127.00
2023-02-07T01:37:07.629Z,122.45
2023-02-07T01:39:37.150Z,102.40
2023-02-07T01:42:06.824Z,100.47
2023-02-07T01:44:45.611Z,88.00
2023-02-07T01:47:20.333Z,89.55
2023-02-07T01:49:52.337Z,84.62
2023-02-07T01:52:27.502Z,73.77
2023-02-07T01:54:59.979Z,76.55
2023-02-07T01:57:29.467Z,64.72
2023-02-07T02:00:00.824Z,69.92
2023-02-07T02:02:33.390Z,60.00
2023-02-07T02:05:04.218Z,56.30
2023-02-07T02:07:35.675Z,59.77
2023-02-07T02:10:14.327Z,50.50
2023-02-07T02:12:56.419Z,49.80
2023-02-07T02:15:41.728Z,45.92
2023-02-07T02:18:23.841Z,44.57
2023-02-07T02:21:14.956Z,39.72
2023-02-07T02:23:59.732Z,44.08
2023-02-07T02:26:58.209Z,38.80
2023-02-07T02:29:47.315Z,38.83
2023-02-07T02:32:54.471Z,36.40
2023-02-07T02:35:29.829Z,37.83
2023-02-07T02:38:19.252Z,37.85
2023-02-07T02:41:07.828Z,34.58
2023-02-07T02:43:49.541Z,31.42
2023-02-07T02:46:31.786Z,31.57
2023-02-07T02:49:04.181Z,27.98
2023-02-07T02:51:34.956Z,33.70
2023-02-07T02:54:04.532Z,28.00
2023-02-07T02:56:54.155Z,35.28
2023-02-07T02:59:49.427Z,31.80
2023-02-07T03:02:37.694Z,35.95
2023-02-07T03:05:22.663Z,32.35
2023-02-07T03:07:58.219Z,33.65
2023-02-07T03:10:49.633Z,34.30
2023-02-07T03:13:22.612Z,28.60
2023-02-07T03:16:17.793Z,31.93
2023-02-07T03:18:59.924Z,31.15
2023-02-07T03:21:32.719Z,30.45
2023-02-07T03:25:42.957Z,30.97
2023-02-07T03:28:16.204Z,31.73
2023-02-07T03:30:49.821Z,35.45
2023-02-07T03:33:21.134Z,33.53
2023-02-07T03:35:59.283Z,37.17
2023-02-07T03:38:30.234Z,34.13
2023-02-07T03:41:03.341Z,30.55
2023-02-07T03:43:35.584Z,31.65
2023-02-07T03:46:05.815Z,37.05
2023-02-07T03:48:35.255Z,33.78
2023-02-07T03:51:05.368Z,27.52
2023-02-07T03:53:34.941Z,28.67
2023-02-07T03:56:04.510Z,31.35
2023-02-07T03:58:33.944Z,39.90
2023-02-07T04:01:03.696Z,36.73
2023-02-07T04:03:33.197Z,29.37
2023-02-07T04:06:02.880Z,29.57
2023-02-07T04:08:33.852Z,27.65
2023-02-07T04:11:05.182Z,30.68
2023-02-07T04:13:34.729Z,28.55
2023-02-07T04:16:07.670Z,28.73
2023-02-07T04:18:37.258Z,30.43
2023-02-07T04:21:08.731Z,29.20
2023-02-07T04:23:38.642Z,34.25
2023-02-07T04:26:08.139Z,32.78
2023-02-07T04:28:37.574Z,36.90
2023-02-07T04:31:07.772Z,33.60
2023-02-07T04:33:37.289Z,30.37
2023-02-07T04:36:07.436Z,33.08
2023-02-07T04:38:36.959Z,32.60
2023-02-07T04:41:07.433Z,31.77
2023-02-07T04:43:38.864Z,30.75
2023-02-07T04:46:09.079Z,35.30
2023-02-07T04:48:39.252Z,28.83
2023-02-07T04:51:08.937Z,32.30
2023-02-07T04:53:38.595Z,34.75
2023-02-07T04:56:08.385Z,30.37
2023-02-07T04:58:37.834Z,32.80
2023-02-07T05:01:07.456Z,27.65
2023-02-07T05:03:37.362Z,27.58
2023-02-07T05:06:07.625Z,29.30
2023-02-07T05:08:38.341Z,29.35
2023-02-07T05:11:07.829Z,32.55
2023-02-07T05:13:37.336Z,27.70
2023-02-07T05:16:07.871Z,31.95
2023-02-07T05:18:37.314Z,30.30
2023-02-07T05:21:07.289Z,25.35
2023-02-07T05:23:36.826Z,29.92
2023-02-07T05:26:06.339Z,28.23
2023-02-07T05:28:35.859Z,29.37
2023-02-07T05:31:05.522Z,27.62
2023-02-07T05:33:35.324Z,35.70
2023-02-07T05:36:06.371Z,28.35
2023-02-07T05:38:35.877Z,31.17
2023-02-07T05:41:05.477Z,26.60
2023-02-07T05:43:35.280Z,25.97
2023-02-07T05:46:04.916Z,24.85
2023-02-07T05:48:34.325Z,22.15
2023-02-07T05:51:04.218Z,26.48
2023-02-07T05:53:33.641Z,27.58
2023-02-07T05:56:03.073Z,27.02
2023-02-07T05:58:32.930Z,25.88
2023-02-07T06:01:02.367Z,27.42
2023-02-07T06:03:31.872Z,27.87
2023-02-07T06:06:01.489Z,23.80
2023-02-07T06:08:31.048Z,31.85
2023-02-07T06:11:00.509Z,33.23
2023-02-07T06:13:30.033Z,28.75
2023-02-07T06:15:59.518Z,24.27
2023-02-07T06:18:28.973Z,34.08
2023-02-07T06:20:58.459Z,28.83
2023-02-07T06:23:27.972Z,28.45
2023-02-07T06:25:57.486Z,25.25
2023-02-07T06:28:27.389Z,28.10
2023-02-07T06:30:57.018Z,24.57
2023-02-07T06:33:26.608Z,28.20
2023-02-07T06:35:56.390Z,28.87
2023-02-07T06:38:25.951Z,27.95
2023-02-07T06:40:55.393Z,37.98
2023-02-07T06:43:25.037Z,27.22
2023-02-07T06:45:54.461Z,30.85
2023-02-07T06:48:23.957Z,36.55
2023-02-07T06:50:53.959Z,36.30
2023-02-07T06:53:23.626Z,31.20
2023-02-07T06:55:53.156Z,33.95
2023-02-07T06:58:22.869Z,25.32
2023-02-07T07:00:52.377Z,23.27
2023-02-07T07:03:25.582Z,26.87
2023-02-07T07:05:55.084Z,25.20
2023-02-07T07:08:24.672Z,23.22
2023-02-07T07:10:55.122Z,20.02
2023-02-07T07:13:24.621Z,26.27
2023-02-07T07:15:54.149Z,22.50
2023-02-07T07:18:23.916Z,19.10
2023-02-07T07:20:57.401Z,21.42
2023-02-07T07:23:26.885Z,16.48
2023-02-07T07:25:57.406Z,24.10
2023-02-07T07:28:27.155Z,19.48
2023-02-07T07:30:58.808Z,30.02
2023-02-07T07:33:30.446Z,28.90
2023-02-07T07:36:01.883Z,17.65
2023-02-07T07:38:32.375Z,27.73
2023-02-07T07:41:04.744Z,21.85
2023-02-07T07:43:34.250Z,19.87
2023-02-07T07:46:04.472Z,20.48
2023-02-07T07:48:34.028Z,17.25
2023-02-07T07:51:03.578Z,18.32
2023-02-07T07:53:33.198Z,19.73
2023-02-07T07:56:02.697Z,21.00
2023-02-07T07:58:32.672Z,19.67
2023-02-07T08:01:02.939Z,16.02
2023-02-07T08:03:32.996Z,18.20
2023-02-07T08:06:02.615Z,21.87
2023-02-07T08:08:32.566Z,16.37
2023-02-07T08:11:07.243Z,15.10
2023-02-07T08:13:37.725Z,16.57
2023-02-07T08:16:14.382Z,12.68
2023-02-07T08:18:44.722Z,14.83
2023-02-07T08:21:14.286Z,18.67
2023-02-07T08:23:43.717Z,11.63
2023-02-07T08:26:13.855Z,11.00
2023-02-07T08:28:43.286Z,16.77
2023-02-07T08:31:13.538Z,13.68
2023-02-07T08:33:44.067Z,13.65
2023-02-07T08:36:14.655Z,12.20
2023-02-07T08:38:44.659Z,13.38
2023-02-07T08:41:14.156Z,15.65
2023-02-07T08:43:43.670Z,12.95
2023-02-07T08:46:13.501Z,13.28
2023-02-07T08:48:43.898Z,12.70
2023-02-07T08:51:13.461Z,13.40
2023-02-07T08:53:43.320Z,13.93
2023-02-07T08:56:12.789Z,14.23
2023-02-07T08:58:42.290Z,12.13
2023-02-07T09:01:12.149Z,11.97
2023-02-07T09:03:42.263Z,17.57
2023-02-07T09:06:12.742Z,10.78
2023-02-07T09:08:42.247Z,16.73
2023-02-07T09:11:11.860Z,11.75
2023-02-07T09:13:42.458Z,14.35
2023-02-07T09:16:13.059Z,17.32
2023-02-07T09:18:44.314Z,15.40
2023-02-07T09:21:13.741Z,13.57
2023-02-07T09:23:43.249Z,14.43
2023-02-07T09:26:18.722Z,17.45
2023-02-07T09:28:48.283Z,12.82
2023-02-07T09:31:18.420Z,12.53
2023-02-07T09:33:48.361Z,15.23
2023-02-07T09:36:27.227Z,13.13
2023-02-07T09:38:57.526Z,13.45
2023-02-07T09:41:38.855Z,12.05
2023-02-07T09:44:17.814Z,14.90
2023-02-07T09:47:08.933Z,10.38
2023-02-07T09:49:47.099Z,13.28
2023-02-07T09:52:20.172Z,12.00
2023-02-07T09:54:55.618Z,11.22
2023-02-07T09:57:41.812Z,6.97
2023-02-07T10:00:29.746Z,10.75
2023-02-07T10:03:11.662Z,7.17
2023-02-07T10:05:48.455Z,8.20
2023-02-07T10:08:20.340Z,8.65
2023-02-07T10:10:59.082Z,15.93
2023-02-07T10:13:37.618Z,6.58
2023-02-07T10:16:34.414Z,6.08
2023-02-07T10:19:16.462Z,2.20
2023-02-07T10:22:01.181Z,4.30
2023-02-07T10:24:36.685Z,4.45
2023-02-07T10:27:12.228Z,3.80
2023-02-07T10:29:45.407Z,2.98
2023-02-07T10:32:27.397Z,2.35
2023-02-07T10:35:04.287Z,2.25
2023-02-07T10:37:36.761Z,2.40
2023-02-07T10:40:33.281Z,2.05
2023-02-07T10:43:05.799Z,2.17
2023-02-07T10:48:07.400Z,3.17
2023-02-07T10:50:38.163Z,2.65
2023-02-07T10:53:07.658Z,6.45
2023-02-07T10:55:40.454Z,6.40
2023-02-07T10:58:23.280Z,5.33
2023-02-07T11:00:54.011Z,5.28
2023-02-07T11:03:26.145Z,6.05
2023-02-07T11:06:03.183Z,5.27
2023-02-07T11:08:35.715Z,5.42
2023-02-07T11:11:33.380Z,5.35
2023-02-07T11:14:06.280Z,6.05
2023-02-07T11:16:36.712Z,5.37
2023-02-07T11:19:08.482Z,5.78
2023-02-07T11:21:47.189Z,7.47
2023-02-07T11:24:21.740Z,5.18
2023-02-07T11:27:06.466Z,6.55
2023-02-07T11:29:56.988Z,5.17
2023-02-07T11:32:29.509Z,4.30
2023-02-07T11:37:42.023Z,6.47
2023-02-07T11:40:31.746Z,4.55
2023-02-07T11:43:04.461Z,3.42
2023-02-07T11:45:36.341Z,3.90
2023-02-07T11:48:06.643Z,3.60
2023-02-07T11:50:42.850Z,3.72
2023-02-07T11:53:27.444Z,6.45
2023-02-07T11:55:58.367Z,2.60
2023-02-07T11:58:34.138Z,2.98
2023-02-07T12:01:06.179Z,6.22
2023-02-07T12:03:54.842Z,3.47
2023-02-07T12:06:28.008Z,3.75
2023-02-07T12:08:58.198Z,5.10
2023-02-07T12:11:30.690Z,5.50
2023-02-07T12:14:09.645Z,5.65
2023-02-07T12:16:45.118Z,7.05
2023-02-07T12:19:20.376Z,6.35
2023-02-07T12:22:04.658Z,6.85
2023-02-07T12:24:39.838Z,7.93
2023-02-07T12:27:17.728Z,7.95
2023-02-07T12:30:14.341Z,7.78
2023-02-07T12:32:49.551Z,8.68
2023-02-07T12:35:30.901Z,8.13
2023-02-07T12:38:15.197Z,9.03
2023-02-07T12:41:17.609Z,7.87
2023-02-07T12:43:53.036Z,7.83
2023-02-07T12:46:42.228Z,8.38
2023-02-07T12:49:35.235Z,7.87
2023-02-07T12:52:16.527Z,10.43
2023-02-07T12:55:00.695Z,12.25
2023-02-07T12:57:34.471Z,9.33
2023-02-07T13:00:25.310Z,6.25
2023-02-07T13:03:12.876Z,9.55
2023-02-07T13:05:48.217Z,11.75
2023-02-07T13:08:39.098Z,7.35
2023-02-07T13:11:11.587Z,5.37
2023-02-07T13:13:48.588Z,10.32
2023-02-07T13:16:26.745Z,5.37
2023-02-07T13:19:05.773Z,3.75
2023-02-07T13:21:53.606Z,5.23
2023-02-07T13:24:25.972Z,4.40
2023-02-07T13:27:07.314Z,9.63
2023-02-07T13:29:38.204Z,5.40
2023-02-07T13:32:13.547Z,2.98
2023-02-07T13:35:04.441Z,3.52
2023-02-07T13:37:43.565Z,7.33
2023-02-07T13:40:30.405Z,5.83
2023-02-07T13:43:11.838Z,4.37
2023-02-07T13:45:59.592Z,12.65
2023-02-07T13:48:53.388Z,7.10
2023-02-07T13:51:30.354Z,3.47
2023-02-07T13:54:18.962Z,2.98
2023-02-07T13:57:18.802Z,8.70
2023-02-07T14:00:15.971Z,6.42
2023-02-07T14:02:48.464Z,4.90
2023-02-07T14:05:23.901Z,5.47
2023-02-07T14:07:59.322Z,6.17
2023-02-07T14:10:37.803Z,4.97
2023-02-07T14:13:07.998Z,5.33
2023-02-07T14:15:42.202Z,4.00
2023-02-07T14:18:38.951Z,3.42
2023-02-07T14:21:23.709Z,4.17
2023-02-07T14:23:59.825Z,4.90
2023-02-07T14:26:44.146Z,5.15
2023-02-07T14:29:27.611Z,5.83
2023-02-07T14:32:02.481Z,6.12
2023-02-07T14:34:35.135Z,4.20
2023-02-07T14:37:07.630Z,7.75
2023-02-07T14:39:37.274Z,3.87
2023-02-07T14:42:12.580Z,11.88
2023-02-07T14:44:46.987Z,6.12
2023-02-07T14:47:22.540Z,7.10
2023-02-07T14:49:55.030Z,4.42
2023-02-07T14:52:33.615Z,4.03
2023-02-07T14:55:16.070Z,5.92
2023-02-07T14:57:57.058Z,13.20
2023-02-07T15:00:32.485Z,5.25
2023-02-07T15:03:19.414Z,4.80
2023-02-07T15:05:59.430Z,8.90
2023-02-07T15:08:32.856Z,5.28
2023-02-07T15:11:05.875Z,5.60
2023-02-07T15:13:41.747Z,6.33
2023-02-07T15:16:26.162Z,7.72
2023-02-07T15:19:04.560Z,6.30
2023-02-07T15:21:42.038Z,10.57
2023-02-07T15:24:23.528Z,12.07
2023-02-07T15:26:57.514Z,9.40
2023-02-07T15:29:38.443Z,6.53
2023-02-07T15:32:22.854Z,8.03
2023-02-07T15:34:52.310Z,6.40
2023-02-07T15:37:28.084Z,9.90
2023-02-07T15:39:59.030Z,8.00
2023-02-07T15:42:28.780Z,3.52
2023-02-07T15:44:59.138Z,6.53
2023-02-07T15:47:36.882Z,9.60
2023-02-07T15:50:24.680Z,9.65
2023-02-07T15:52:57.812Z,9.78
2023-02-07T15:55:30.292Z,11.73
2023-02-07T15:58:00.812Z,10.48
2023-02-07T16:00:41.864Z,9.87
2023-02-07T16:03:20.571Z,9.40
2023-02-07T16:05:50.585Z,15.48
2023-02-07T16:08:38.470Z,16.32
2023-02-07T16:11:30.583Z,14.58
2023-02-07T16:14:15.586Z,13.87
2023-02-07T16:16:53.865Z,21.17
2023-02-07T16:19:31.813Z,15.40
2023-02-07T16:22:08.152Z,17.48
2023-02-07T16:24:41.988Z,14.50
2023-02-07T16:27:17.171Z,18.30
2023-02-07T16:29:47.408Z,25.17
2023-02-07T16:32:17.037Z,19.90
2023-02-07T16:34:58.793Z,15.75
2023-02-07T16:37:17.804Z,21.35
2023-02-07T16:39:47.392Z,20.02
2023-02-07T16:42:20.268Z,18.37
2023-02-07T16:47:19.779Z,19.85
2023-02-07T16:49:49.220Z,22.75
2023-02-07T16:52:18.624Z,16.70
2023-02-07T16:54:48.405Z,28.95
2023-02-07T16:57:18.568Z,20.32
2023-02-07T16:59:48.101Z,23.35
2023-02-07T17:02:17.851Z,23.45
2023-02-07T17:04:47.851Z,27.58
2023-02-07T17:07:17.333Z,20.10
2023-02-07T17:09:48.907Z,29.23
2023-02-07T17:12:18.565Z,29.92
2023-02-07T17:14:48.267Z,28.07
2023-02-07T17:17:17.687Z,21.27
2023-02-07T17:19:51.477Z,17.87
2023-02-07T17:22:20.906Z,35.65
2023-02-07T17:24:50.321Z,44.18
2023-02-07T17:27:19.884Z,22.75
2023-02-07T17:29:49.861Z,27.35
2023-02-07T17:32:19.357Z,29.87
2023-02-07T17:34:48.974Z,24.15
2023-02-07T17:37:18.397Z,27.17
2023-02-07T17:39:47.827Z,31.27
2023-02-07T17:42:18.606Z,29.85
2023-02-07T17:44:48.099Z,26.95
2023-02-07T17:47:17.717Z,22.65
2023-02-07T17:49:47.351Z,25.32
2023-02-07T17:52:16.753Z,23.80
2023-02-07T17:54:46.268Z,23.62
2023-02-07T17:57:16.132Z,24.57
2023-02-07T17:59:45.576Z,26.05
2023-02-07T18:02:15.316Z,24.40
2023-02-07T18:04:44.772Z,24.87
2023-02-07T18:07:14.731Z,18.15
2023-02-07T18:09:44.190Z,26.90
2023-02-07T18:12:13.638Z,25.05
2023-02-07T18:14:43.068Z,22.55
2023-02-07T18:17:13.504Z,20.57
2023-02-07T18:19:43.011Z,20.95
2023-02-07T18:22:12.576Z,22.75
2023-02-07T18:24:42.448Z,20.10
2023-02-07T18:27:13.620Z,25.12
2023-02-07T18:29:43.290Z,22.62
2023-02-07T18:32:13.209Z,20.15
2023-02-07T18:34:43.077Z,29.77
2023-02-07T18:37:12.572Z,16.82
2023-02-07T18:39:42.048Z,28.67
2023-02-07T18:42:13.173Z,27.87
2023-02-07T18:44:42.910Z,16.57
2023-02-07T18:47:12.485Z,24.27
2023-02-07T18:49:41.892Z,24.67
2023-02-07T18:52:11.514Z,30.95
2023-02-07T18:54:41.244Z,29.27
2023-02-07T18:57:10.946Z,21.82
2023-02-07T18:59:41.099Z,14.78
2023-02-07T19:02:13.593Z,26.55
2023-02-07T19:04:43.593Z,18.10
2023-02-07T19:07:13.662Z,21.68
2023-02-07T19:09:43.210Z,68.07
2023-02-07T19:12:14.176Z,19.35
2023-02-07T19:14:44.210Z,19.67
2023-02-07T19:17:15.413Z,22.93
2023-02-07T19:19:45.123Z,22.20
2023-02-07T19:22:17.870Z,23.40
2023-02-07T19:24:45.846Z,20.07
2023-02-07T19:27:15.570Z,25.08
2023-02-07T19:29:45.005Z,21.75
2023-02-07T19:32:14.690Z,22.13
2023-02-07T19:34:44.164Z,18.05
2023-02-07T19:37:14.671Z,14.93
2023-02-07T19:39:45.867Z,24.93
2023-02-07T19:42:15.389Z,28.73
2023-02-07T19:44:44.819Z,24.25
2023-02-07T19:47:14.321Z,22.77
2023-02-07T19:49:43.886Z,21.97
2023-02-07T19:52:13.650Z,18.95
2023-02-07T19:54:43.142Z,16.83
2023-02-07T19:57:12.701Z,18.10
2023-02-07T19:59:42.916Z,16.62
2023-02-07T20:02:15.251Z,21.87
2023-02-07T20:04:44.847Z,22.42
2023-02-07T20:07:14.642Z,15.75
2023-02-07T20:09:44.273Z,27.00
2023-02-07T20:12:13.784Z,19.57
2023-02-07T20:14:43.485Z,27.55
2023-02-07T20:17:12.995Z,16.15
2023-02-07T20:19:42.414Z,20.20
2023-02-07T20:22:11.884Z,17.30
2023-02-07T20:24:41.809Z,40.00
2023-02-07T20:27:11.324Z,33.20
2023-02-07T20:29:40.748Z,17.60
2023-02-07T20:32:11.997Z,22.02
2023-02-07T20:34:41.497Z,19.30
2023-02-07T20:37:11.769Z,20.30
2023-02-07T20:39:41.387Z,15.25
2023-02-07T20:42:10.878Z,23.07
2023-02-07T20:44:40.295Z,20.57
2023-02-07T20:47:12.243Z,22.37
2023-02-07T20:49:41.735Z,17.27
2023-02-07T20:52:11.176Z,19.95
2023-02-07T20:54:41.611Z,19.63
2023-02-07T20:57:11.257Z,16.17
2023-02-07T20:59:40.751Z,21.17
2023-02-07T21:02:12.273Z,23.50
2023-02-07T21:04:43.006Z,21.40
2023-02-07T21:07:12.567Z,22.05
2023-02-07T21:09:42.813Z,20.12
2023-02-07T21:12:12.316Z,21.42
2023-02-07T21:14:42.777Z,26.90
2023-02-07T21:17:13.439Z,12.93
2023-02-07T21:19:43.434Z,15.15
2023-02-07T21:22:12.872Z,15.75
2023-02-07T21:24:43.729Z,14.63
2023-02-07T21:27:13.348Z,17.17
2023-02-07T21:29:42.913Z,18.23
2023-02-07T21:32:12.342Z,17.27
2023-02-07T21:34:41.892Z,20.20
2023-02-07T21:37:11.305Z,16.75
2023-02-07T21:39:40.814Z,18.77
2023-02-07T21:42:10.305Z,20.65
2023-02-07T21:44:39.731Z,14.05
2023-02-07T21:47:09.174Z,19.12
2023-02-07T21:49:39.106Z,20.60
2023-02-07T21:52:09.288Z,16.17
2023-02-07T21:54:38.724Z,23.77
2023-02-07T21:57:09.251Z,19.25
2023-02-07T21:59:39.065Z,17.75
2023-02-07T22:02:10.098Z,17.73
2023-02-07T22:04:40.154Z,16.15
2023-02-07T22:07:09.583Z,16.25
2023-02-07T22:09:39.357Z,19.23
2023-02-07T22:12:08.906Z,19.55
2023-02-07T22:14:38.767Z,23.27
2023-02-07T22:17:08.464Z,17.62
2023-02-07T22:19:37.896Z,17.85
2023-02-07T22:22:07.387Z,22.35
2023-02-07T22:24:37.160Z,13.20
2023-02-07T22:27:06.811Z,26.57
2023-02-07T22:29:36.295Z,19.75
2023-02-07T22:32:05.997Z,19.62
2023-02-07T22:34:35.491Z,17.77
2023-02-07T22:37:04.921Z,14.00
2023-02-07T22:39:34.645Z,16.50
2023-02-07T22:42:04.133Z,14.83
2023-02-07T22:44:34.348Z,18.12
2023-02-07T22:47:05.195Z,18.42
2023-02-07T22:49:35.038Z,17.27
2023-02-07T22:52:05.446Z,18.70
2023-02-07T22:54:34.933Z,18.45
2023-02-07T22:57:06.052Z,14.38
2023-02-07T22:59:35.542Z,16.10
2023-02-07T23:02:05.075Z,23.50
2023-02-07T23:04:34.557Z,17.32
2023-02-07T23:07:03.991Z,15.85
2023-02-07T23:09:33.796Z,22.77
2023-02-07T23:12:03.492Z,14.63
2023-02-07T23:14:33.077Z,18.45
2023-02-07T23:17:03.682Z,13.98
2023-02-07T23:19:33.348Z,16.20
2023-02-07T23:22:02.994Z,18.30
2023-02-07T23:24:32.740Z,12.28
2023-02-07T23:27:02.421Z,18.12
2023-02-07T23:29:32.348Z,19.17
2023-02-07T23:32:02.089Z,25.40
2023-02-07T23:34:32.730Z,17.20
2023-02-07T23:37:02.405Z,26.90
2023-02-07T23:39:32.283Z,21.97
2023-02-07T23:42:02.695Z,15.83
2023-02-07T23:44:32.304Z,14.60
2023-02-07T23:47:01.936Z,16.65
2023-02-07T23:49:31.803Z,12.15
2023-02-07T23:52:01.587Z,13.63
2023-02-07T23:54:31.278Z,15.23
2023-02-07T23:57:00.957Z,15.85
2023-02-07T23:59:30.633Z,13.88
